Greggton, Texas
Current Conditions -  °F | °C
As of 4:53 PM on Wednesday 22 Oct 2014 (Local Time) from KGGG Reporting Station
Clear Clear  
Wind Chill: 77°   Ceiling: Unl
Heat Index: 78°   Visibility: 10mi
Dew Point: 52°   Wind: 7mph
Humidity: 42%   Direction: 70°ENE
Pressure: 30.08"   Gusts: NA
Location:  32.5893°N, 94.7503°W
Report Text: KGGG 222153Z 07006KT 10SM CLR 25/11 A3008 RMK AO2 SLP181 T02500111
Loading
Personal Weather Stations






























Interactive Weather Map
Tropical Storm Tracking
New forecast layout! Learn more

10-Day Weather Forecast

Advertisements
Track Severe Weather on mobile